Time;durP1;ratioP1;P1;durP2;ratioP2;P2;SDS_P1;SDS_P2;PMS_P1;PMS_P2;Temp;Humidity;BMP_temperature;BMP_pressure;BME280_temperature;BME280_humidity;BME280_pressure;Samples;Min_cycle;Max_cycle;Signal;HPM_P1;HPM_P2
2023/04/18 00:02:24;;;;;;;14.4;10.9;;;;;;;7.63;94.48242;939.1993;;;;
2023/04/18 00:04:49;;;;;;;10.7;8.6;;;;;;;7.74;93.92578;939.2125;;;;
2023/04/18 00:07:14;;;;;;;11.2;8.3;;;;;;;7.66;93.55762;939.2109;;;;
2023/04/18 00:09:41;;;;;;;9.3;8;;;;;;;7.62;93.73145;939.1658;;;;
2023/04/18 00:12:06;;;;;;;10.1;8.9;;;;;;;7.69;93.34863;939.0966;;;;
2023/04/18 00:14:33;;;;;;;10.5;9;;;;;;;7.54;94.07715;939.1415;;;;
2023/04/18 00:16:57;;;;;;;11.1;9.8;;;;;;;7.44;94.54004;939.1233;;;;
2023/04/18 00:19:23;;;;;;;15.1;11;;;;;;;7.4;95.37109;939.157;;;;
2023/04/18 00:21:48;;;;;;;12;10;;;;;;;7.46;95.38574;939.1168;;;;
2023/04/18 00:24:15;;;;;;;13.3;10.6;;;;;;;7.5;95.31445;939.147;;;;
2023/04/18 00:26:40;;;;;;;14.2;10.9;;;;;;;7.45;95.61035;939.0809;;;;
2023/04/18 00:29:06;;;;;;;13;10.4;;;;;;;7.47;95.45508;939.0132;;;;
2023/04/18 00:31:32;;;;;;;12.2;10.2;;;;;;;7.45;95.61035;939.0959;;;;
2023/04/18 00:33:57;;;;;;;11.9;10.1;;;;;;;7.48;95.56836;939.1147;;;;
2023/04/18 00:36:22;;;;;;;13.5;10.7;;;;;;;7.59;95.12109;939.0697;;;;
2023/04/18 00:38:48;;;;;;;11.5;9.6;;;;;;;7.66;94.4541;939.0533;;;;
2023/04/18 00:41:13;;;;;;;12.3;9.8;;;;;;;7.67;94.40918;939.0764;;;;
2023/04/18 00:43:40;;;;;;;11.9;9.2;;;;;;;7.69;94.23535;939.084;;;;
2023/04/18 00:46:05;;;;;;;13.4;9.8;;;;;;;7.65;94.20215;939.0602;;;;
2023/04/18 00:48:30;;;;;;;13.3;11.1;;;;;;;7.68;94.41309;939.0497;;;;
2023/04/18 00:50:55;;;;;;;14;10.8;;;;;;;7.64;94.23438;939.0861;;;;
2023/04/18 00:53:21;;;;;;;13.9;11.1;;;;;;;7.67;94.55664;939.1017;;;;
2023/04/18 00:55:46;;;;;;;12.7;10.2;;;;;;;7.74;94.17676;939.0526;;;;
2023/04/18 00:58:11;;;;;;;13.6;10.8;;;;;;;7.8;93.77148;939.0625;;;;
2023/04/18 01:00:37;;;;;;;13.2;10.5;;;;;;;7.84;93.58398;939.0692;;;;
2023/04/18 01:03:02;;;;;;;11.9;10;;;;;;;7.84;93.33496;939.0898;;;;
2023/04/18 01:05:30;;;;;;;12.9;10.9;;;;;;;7.84;93.31152;939.1119;;;;
2023/04/18 01:07:59;;;;;;;12.7;10.2;;;;;;;7.85;93.2002;939.0542;;;;
2023/04/18 01:10:20;;;;;;;14;10.5;;;;;;;7.89;93.1416;939.0036;;;;
2023/04/18 01:12:47;;;;;;;12.5;10.3;;;;;;;7.84;93.23438;939.0486;;;;
2023/04/18 01:15:12;;;;;;;13.8;10.7;;;;;;;7.82;93.84277;938.9975;;;;
2023/04/18 01:17:39;;;;;;;13.9;11.3;;;;;;;7.92;93.73828;938.9764;;;;
2023/04/18 01:20:05;;;;;;;14.8;11.2;;;;;;;8;93.44922;938.8663;;;;
2023/04/18 01:22:31;;;;;;;13.7;10.8;;;;;;;8.01;93.01074;938.9025;;;;
2023/04/18 01:24:56;;;;;;;13.5;11.2;;;;;;;8.05;92.84766;938.87;;;;
2023/04/18 01:27:26;;;;;;;15.1;11.2;;;;;;;8.08;92.50195;938.8594;;;;
2023/04/18 01:29:54;;;;;;;13.7;10.9;;;;;;;8.16;92.1582;938.8245;;;;
2023/04/18 01:32:19;;;;;;;12.5;10.1;;;;;;;8.13;91.79785;938.7834;;;;
2023/04/18 01:34:46;;;;;;;13.7;10.4;;;;;;;8.06;91.79395;938.7885;;;;
2023/04/18 01:37:11;;;;;;;13.5;11;;;;;;;8.08;91.78711;938.7405;;;;
2023/04/18 01:39:37;;;;;;;13.7;11.5;;;;;;;8.06;91.99902;938.6259;;;;
2023/04/18 01:42:03;;;;;;;13.5;10.8;;;;;;;8;92.28027;938.6641;;;;
2023/04/18 01:44:28;;;;;;;13.4;11.3;;;;;;;7.94;92.4707;938.6692;;;;
2023/04/18 01:46:54;;;;;;;12.8;11.1;;;;;;;7.93;92.49316;938.6279;;;;
2023/04/18 01:49:19;;;;;;;14.4;11.5;;;;;;;7.9;92.62207;938.6937;;;;
2023/04/18 01:51:44;;;;;;;15.3;11.6;;;;;;;7.9;92.64648;938.6694;;;;
2023/04/18 01:54:09;;;;;;;15.2;11.9;;;;;;;7.93;92.69824;938.6208;;;;
2023/04/18 01:56:35;;;;;;;14.9;11.4;;;;;;;7.94;92.69824;938.6581;;;;
2023/04/18 01:59:00;;;;;;;14.6;11.4;;;;;;;7.85;92.95313;938.6484;;;;
2023/04/18 02:01:27;;;;;;;14.4;11.5;;;;;;;7.78;93.19824;938.6555;;;;
2023/04/18 02:03:53;;;;;;;13.3;10.8;;;;;;;7.7;93.59082;938.6333;;;;
2023/04/18 02:06:18;;;;;;;14.8;12.1;;;;;;;7.47;94.42578;938.6236;;;;
2023/04/18 02:08:43;;;;;;;14.2;11.5;;;;;;;7.46;94.97754;938.628;;;;
2023/04/18 02:11:10;;;;;;;13;10.1;;;;;;;7.57;94.75;938.6389;;;;
2023/04/18 02:13:35;;;;;;;15.2;11.1;;;;;;;7.64;94.01953;938.6351;;;;
2023/04/18 02:16:04;;;;;;;13.3;10.6;;;;;;;7.55;93.99902;938.5823;;;;
2023/04/18 02:18:33;;;;;;;12.6;10.2;;;;;;;7.6;93.89746;938.5073;;;;
2023/04/18 02:20:55;;;;;;;14.3;10.9;;;;;;;7.64;93.72266;938.6058;;;;
2023/04/18 02:23:22;;;;;;;11.4;9.5;;;;;;;7.61;93.41016;938.5948;;;;
2023/04/18 02:25:47;;;;;;;13.1;10.3;;;;;;;7.54;93.66699;938.6375;;;;
2023/04/18 02:28:12;;;;;;;13.5;10.1;;;;;;;7.49;93.77051;938.619;;;;
2023/04/18 02:30:39;;;;;;;11.7;9.3;;;;;;;7.45;93.7959;938.6255;;;;
2023/04/18 02:33:04;;;;;;;10.7;8.8;;;;;;;7.44;93.96387;938.5999;;;;
2023/04/18 02:35:30;;;;;;;11.9;9.7;;;;;;;7.38;94.24316;938.4895;;;;
2023/04/18 02:37:55;;;;;;;11.2;9.2;;;;;;;7.41;94.36621;938.5533;;;;
2023/04/18 02:40:22;;;;;;;12.4;9.5;;;;;;;7.5;93.76074;938.5947;;;;
2023/04/18 02:42:48;;;;;;;13.2;8.7;;;;;;;7.43;93.84668;938.5797;;;;
2023/04/18 02:45:13;;;;;;;12;8.9;;;;;;;7.35;94.47559;938.5506;;;;
2023/04/18 02:47:39;;;;;;;10.5;8.1;;;;;;;7.39;94.38281;938.5992;;;;
2023/04/18 02:50:04;;;;;;;10.5;8.4;;;;;;;7.41;94.06055;938.6293;;;;
2023/04/18 02:52:35;;;;;;;8.6;7.1;;;;;;;7.39;93.88477;938.5912;;;;
2023/04/18 02:55:03;;;;;;;9.3;7.6;;;;;;;7.34;93.80664;938.6069;;;;
2023/04/18 02:57:28;;;;;;;9.8;8.2;;;;;;;7.22;94.66309;938.5424;;;;
2023/04/18 02:59:54;;;;;;;9.3;8;;;;;;;7.2;94.8623;938.5369;;;;
2023/04/18 03:02:19;;;;;;;8.5;7;;;;;;;7.24;94.52148;938.5294;;;;
2023/04/18 03:04:48;;;;;;;8.9;7.5;;;;;;;7.21;94.62695;938.5263;;;;
2023/04/18 03:07:13;;;;;;;9.2;7.4;;;;;;;7.36;94.04883;938.5692;;;;
2023/04/18 03:09:38;;;;;;;8.9;6.9;;;;;;;7.38;93.56543;938.5919;;;;
2023/04/18 03:12:03;;;;;;;10.2;7;;;;;;;7.35;93.17188;938.4962;;;;
2023/04/18 03:14:29;;;;;;;8.7;6.8;;;;;;;7.29;93.29785;938.4925;;;;
2023/04/18 03:16:54;;;;;;;12.6;8.6;;;;;;;7.31;93.07324;938.5189;;;;
2023/04/18 03:19:22;;;;;;;9.5;7.4;;;;;;;7.31;93.06445;938.4866;;;;
2023/04/18 03:21:47;;;;;;;11.7;7.8;;;;;;;7.24;93.28418;938.5047;;;;
2023/04/18 03:24:13;;;;;;;8.3;6.4;;;;;;;7.27;93.22461;938.4998;;;;
2023/04/18 03:26:38;;;;;;;8.7;6.5;;;;;;;7.28;93.08789;938.4992;;;;
2023/04/18 03:29:05;;;;;;;7.5;6.6;;;;;;;7.27;93.28125;938.4865;;;;
2023/04/18 03:31:32;;;;;;;9.9;7.2;;;;;;;7.04;94.23828;938.5198;;;;
2023/04/18 03:33:55;;;;;;;11.4;8.8;;;;;;;7.03;94.61914;938.4863;;;;
2023/04/18 03:36:24;;;;;;;10.1;8.1;;;;;;;7.06;94.68359;938.5281;;;;
2023/04/18 03:38:45;;;;;;;11.2;8.9;;;;;;;7.1;94.56641;938.5226;;;;
2023/04/18 03:41:13;;;;;;;11.6;8.9;;;;;;;7.06;94.75391;938.5005;;;;
2023/04/18 03:43:38;;;;;;;11.9;8.1;;;;;;;6.99;95.26953;938.4741;;;;
2023/04/18 03:46:03;;;;;;;10.6;8.5;;;;;;;6.95;95.79004;938.5023;;;;
2023/04/18 03:48:29;;;;;;;10.6;8.9;;;;;;;6.91;95.79297;938.4777;;;;
2023/04/18 03:50:56;;;;;;;12.6;9.4;;;;;;;6.77;96.7002;938.459;;;;
2023/04/18 03:53:21;;;;;;;11.8;8.9;;;;;;;6.85;96.6416;938.5073;;;;
2023/04/18 03:55:47;;;;;;;12.6;9.7;;;;;;;6.82;96.89355;938.4953;;;;
2023/04/18 03:58:13;;;;;;;10.8;8.2;;;;;;;6.92;96.25977;938.4763;;;;
2023/04/18 04:02:31;;;;;;;11.2;8.5;;;;;;;7;95.55469;938.4988;;;;
2023/04/18 04:04:56;;;;;;;10.4;8.4;;;;;;;7.05;95.06641;938.4931;;;;
2023/04/18 04:07:21;;;;;;;14.7;9.4;;;;;;;7.03;95.24219;938.4419;;;;
2023/04/18 04:09:49;;;;;;;11.8;8.8;;;;;;;7.01;95.33008;938.4329;;;;
2023/04/18 04:12:14;;;;;;;8.9;6.8;;;;;;;7;95.14551;938.4322;;;;
2023/04/18 04:14:41;;;;;;;7.7;5.8;;;;;;;7.09;94.48535;938.4955;;;;
2023/04/18 04:17:07;;;;;;;5.7;4.9;;;;;;;7.07;93.91504;938.5513;;;;
2023/04/18 04:19:34;;;;;;;6.4;5.8;;;;;;;7.03;94.09961;938.5947;;;;
2023/04/18 04:21:59;;;;;;;7.2;5.3;;;;;;;6.96;94.53906;938.5628;;;;
2023/04/18 04:24:27;;;;;;;7.7;5.2;;;;;;;6.92;94.28906;938.6339;;;;
2023/04/18 04:26:52;;;;;;;6;5.2;;;;;;;6.78;95.06543;938.6264;;;;
2023/04/18 04:29:17;;;;;;;5.3;4.8;;;;;;;6.64;95.89258;938.6498;;;;
2023/04/18 04:31:42;;;;;;;6.8;5.7;;;;;;;6.54;96.68359;938.7047;;;;
2023/04/18 04:34:08;;;;;;;6.1;5.5;;;;;;;6.69;96.27637;938.6312;;;;
2023/04/18 04:36:34;;;;;;;6.5;5.7;;;;;;;6.83;95.40332;938.7196;;;;
2023/04/18 04:39:02;;;;;;;8.3;6.3;;;;;;;6.79;95.35938;938.6091;;;;
2023/04/18 04:41:25;;;;;;;8.2;6.4;;;;;;;6.76;95.52344;938.6994;;;;
2023/04/18 04:43:51;;;;;;;7.2;6.1;;;;;;;6.75;95.78125;938.7087;;;;
2023/04/18 04:46:18;;;;;;;7.7;5.9;;;;;;;6.76;95.89648;938.7058;;;;
2023/04/18 04:48:41;;;;;;;6.4;5.7;;;;;;;6.73;96.08301;938.6401;;;;
2023/04/18 04:51:07;;;;;;;7.7;6;;;;;;;6.67;96.0918;938.6656;;;;
2023/04/18 04:53:32;;;;;;;7.7;6.4;;;;;;;6.81;95.54688;938.6859;;;;
2023/04/18 04:55:58;;;;;;;8.1;6;;;;;;;6.95;94.53516;938.7494;;;;
2023/04/18 04:58:23;;;;;;;7.2;5.8;;;;;;;6.88;93.94141;938.7025;;;;
2023/04/18 05:00:51;;;;;;;8.3;5.9;;;;;;;7;93.77539;938.6674;;;;
2023/04/18 05:03:15;;;;;;;7.2;5.5;;;;;;;7.05;92.86914;938.6602;;;;
2023/04/18 05:05:40;;;;;;;6.3;5.7;;;;;;;7.1;92.7793;938.6542;;;;
2023/04/18 05:08:05;;;;;;;6.6;5.5;;;;;;;7.23;92.20605;938.7397;;;;
2023/04/18 05:10:35;;;;;;;6.8;5.3;;;;;;;7.27;91.77344;938.7517;;;;
2023/04/18 05:12:58;;;;;;;5.5;4.9;;;;;;;7.26;91.0918;938.7438;;;;
2023/04/18 05:15:26;;;;;;;6.5;5.1;;;;;;;7.09;90.84082;938.7791;;;;
2023/04/18 05:17:52;;;;;;;6.2;5.6;;;;;;;7.21;91.02344;938.7045;;;;
2023/04/18 05:20:17;;;;;;;5.1;4.3;;;;;;;7.4;89.88477;938.726;;;;
2023/04/18 05:22:44;;;;;;;6;4.7;;;;;;;7.45;89.2959;938.6808;;;;
2023/04/18 05:25:09;;;;;;;4.3;3.9;;;;;;;7.57;88.46973;938.6707;;;;
2023/04/18 05:27:36;;;;;;;4.2;3.5;;;;;;;7.89;87.11621;938.7103;;;;
2023/04/18 05:30:01;;;;;;;4.7;4.2;;;;;;;8.06;86.56055;938.6742;;;;
2023/04/18 05:32:26;;;;;;;4.3;3.7;;;;;;;8.19;85.68945;938.5856;;;;
2023/04/18 05:34:52;;;;;;;4.3;3.9;;;;;;;8.51;85.73145;938.5764;;;;
2023/04/18 05:37:17;;;;;;;3.9;3.6;;;;;;;8.94;84.30469;938.6309;;;;
2023/04/18 05:39:42;;;;;;;4;3.7;;;;;;;9.3;81.44727;938.5822;;;;
2023/04/18 05:42:07;;;;;;;5.5;4.6;;;;;;;9.41;79.83984;938.5583;;;;
2023/04/18 05:44:35;;;;;;;7.3;5.5;;;;;;;9.48;79.99121;938.6033;;;;
2023/04/18 05:47:00;;;;;;;7.4;4.9;;;;;;;9.93;79.56055;938.6384;;;;
2023/04/18 05:49:26;;;;;;;4.1;3.7;;;;;;;10.25;77.9082;938.5531;;;;
2023/04/18 05:51:51;;;;;;;4.8;4.1;;;;;;;10.51;77.625;938.6262;;;;
2023/04/18 05:54:20;;;;;;;5.9;3.7;;;;;;;10.99;75.08203;938.659;;;;
2023/04/18 05:56:44;;;;;;;4.5;3.6;;;;;;;12.18;72.34277;938.6307;;;;
2023/04/18 05:59:09;;;;;;;5.1;4;;;;;;;13.7;64.62402;938.5818;;;;
2023/04/18 06:01:34;;;;;;;6.3;4;;;;;;;14.8;59.6582;938.6383;;;;
2023/04/18 06:04:02;;;;;;;6.9;5;;;;;;;15.85;57.99805;938.6068;;;;
2023/04/18 06:06:27;;;;;;;6.6;5;;;;;;;15.84;55.07227;938.6863;;;;
2023/04/18 06:08:55;;;;;;;4.3;3.9;;;;;;;15.14;57.26953;938.7568;;;;
2023/04/18 06:11:21;;;;;;;4.6;4.1;;;;;;;14.17;59.59473;938.7659;;;;
2023/04/18 06:13:45;;;;;;;4.9;4.2;;;;;;;14.44;60.20605;938.7737;;;;
2023/04/18 06:16:10;;;;;;;3.8;3.3;;;;;;;14.64;59.30176;938.6994;;;;
2023/04/18 06:18:38;;;;;;;3.4;2.8;;;;;;;15.59;58.56348;938.7917;;;;
2023/04/18 06:21:03;;;;;;;3.6;3.1;;;;;;;16.46;53.36816;938.8008;;;;
2023/04/18 06:23:28;;;;;;;3.9;3.3;;;;;;;15.7;53.41406;938.7758;;;;
2023/04/18 06:25:53;;;;;;;5.5;2.9;;;;;;;14.56;58.46094;938.8574;;;;
2023/04/18 06:28:22;;;;;;;3.6;3.1;;;;;;;14.82;59.29102;938.8428;;;;
2023/04/18 06:30:47;;;;;;;4.6;3.2;;;;;;;14.72;59.93457;938.8664;;;;
2023/04/18 06:33:14;;;;;;;5.3;3.3;;;;;;;15.68;55.65332;938.8442;;;;
2023/04/18 06:35:40;;;;;;;4.1;3.3;;;;;;;15.48;55.9043;938.9047;;;;
2023/04/18 06:38:05;;;;;;;3.9;3.1;;;;;;;14.25;58.80957;938.8373;;;;
2023/04/18 06:40:30;;;;;;;4;3.6;;;;;;;13.94;60.57617;938.8256;;;;
2023/04/18 06:42:55;;;;;;;4.3;3.3;;;;;;;14.02;60.39063;938.877;;;;
2023/04/18 06:45:21;;;;;;;4.2;3.4;;;;;;;14.35;60.2627;938.8858;;;;
2023/04/18 06:47:46;;;;;;;3.2;2.9;;;;;;;14.65;59.59082;938.866;;;;
2023/04/18 06:50:11;;;;;;;3.7;3.2;;;;;;;14.33;59.48828;938.7873;;;;
2023/04/18 06:52:42;;;;;;;5.3;3.4;;;;;;;14.15;60.05273;938.8837;;;;
2023/04/18 06:55:03;;;;;;;4.8;3.8;;;;;;;14.01;60.58496;938.8599;;;;
2023/04/18 06:57:30;;;;;;;5;3.6;;;;;;;13.96;60.34863;938.872;;;;
2023/04/18 06:59:55;;;;;;;4.5;3.8;;;;;;;13.84;60.89648;938.8835;;;;
2023/04/18 07:02:24;;;;;;;5.5;4.2;;;;;;;13.16;62.76465;938.8411;;;;
2023/04/18 07:04:49;;;;;;;6.5;4.3;;;;;;;13.06;64.15039;938.8147;;;;
2023/04/18 07:07:14;;;;;;;4.7;4.2;;;;;;;12.58;65.68652;938.8546;;;;
2023/04/18 07:09:39;;;;;;;6.4;3.7;;;;;;;12.52;66.06738;938.8073;;;;
2023/04/18 07:12:05;;;;;;;6.3;4.3;;;;;;;12.23;66.75684;938.8116;;;;
2023/04/18 07:14:30;;;;;;;6.3;4.4;;;;;;;12.07;68.3584;938.8282;;;;
2023/04/18 07:16:59;;;;;;;7.6;5;;;;;;;12.02;68.62695;938.8431;;;;
2023/04/18 07:19:22;;;;;;;5.8;4.7;;;;;;;11.73;69.62305;938.8488;;;;
2023/04/18 07:21:49;;;;;;;6.1;4.7;;;;;;;11.74;70.74512;938.8544;;;;
2023/04/18 07:24:14;;;;;;;6.9;4.8;;;;;;;11.65;70.39941;938.8666;;;;
2023/04/18 07:26:39;;;;;;;4.9;4.5;;;;;;;11.43;71.2207;938.8186;;;;
2023/04/18 07:29:04;;;;;;;6.2;5.1;;;;;;;11.47;71.33203;938.791;;;;
2023/04/18 07:31:30;;;;;;;6.2;4.8;;;;;;;11.51;69.89551;938.8519;;;;
2023/04/18 07:33:55;;;;;;;4.9;4.4;;;;;;;11.47;70.47363;938.8214;;;;
2023/04/18 07:36:22;;;;;;;4.8;4.3;;;;;;;11.22;72.0791;938.7881;;;;
2023/04/18 07:38:47;;;;;;;5.1;4.6;;;;;;;11.59;70.89453;938.8109;;;;
2023/04/18 07:41:12;;;;;;;4.9;4.4;;;;;;;11.75;69.39648;938.8074;;;;
2023/04/18 07:43:37;;;;;;;4.6;4.2;;;;;;;12.01;67.7207;938.8228;;;;
2023/04/18 07:46:04;;;;;;;4.7;4.3;;;;;;;12.13;68.02539;938.8212;;;;
2023/04/18 07:48:29;;;;;;;4;3.6;;;;;;;12.23;66.37891;938.8116;;;;
2023/04/18 07:50:58;;;;;;;3.5;3.2;;;;;;;12.27;65.18066;938.8038;;;;
2023/04/18 07:53:23;;;;;;;4.1;3.4;;;;;;;12.28;66.59277;938.8158;;;;
2023/04/18 07:55:48;;;;;;;3.6;3.3;;;;;;;12.42;66.15527;938.8214;;;;
2023/04/18 07:58:13;;;;;;;3.9;3.5;;;;;;;12.46;65.84082;938.8247;;;;
2023/04/18 08:00:43;;;;;;;4.4;3.2;;;;;;;12.34;65.73047;938.8336;;;;
2023/04/18 08:03:09;;;;;;;3.9;3;;;;;;;12.32;66.13867;938.8478;;;;
2023/04/18 08:05:32;;;;;;;3.7;3.4;;;;;;;12.66;64.86133;938.8638;;;;
2023/04/18 08:07:58;;;;;;;4.2;3.7;;;;;;;12.85;64.85352;938.8981;;;;
2023/04/18 08:10:24;;;;;;;6.2;5.3;;;;;;;12.47;67.05762;938.8855;;;;
2023/04/18 08:12:52;;;;;;;5.5;4.9;;;;;;;12.38;67.11133;938.9152;;;;
2023/04/18 08:15:17;;;;;;;6;5.2;;;;;;;12.76;67.28516;938.848;;;;
2023/04/18 08:17:47;;;;;;;6.5;5.5;;;;;;;12.61;67.84766;938.8906;;;;
2023/04/18 08:20:09;;;;;;;5.8;5.3;;;;;;;12.81;67.70605;938.8409;;;;
2023/04/18 08:22:38;;;;;;;5.9;5.1;;;;;;;13.47;66.52148;938.8459;;;;
2023/04/18 08:25:03;;;;;;;5.9;5.3;;;;;;;13.64;64.68457;938.8684;;;;
2023/04/18 08:27:30;;;;;;;8.9;5.9;;;;;;;13.48;64.82227;938.9347;;;;
2023/04/18 08:29:54;;;;;;;5.2;4.4;;;;;;;13.93;62.63184;938.8666;;;;
2023/04/18 08:32:19;;;;;;;4.9;4.4;;;;;;;14.28;61.47461;938.8923;;;;
2023/04/18 08:34:45;;;;;;;4;3.6;;;;;;;15.05;59.3916;938.9403;;;;
2023/04/18 08:37:10;;;;;;;4.2;3.8;;;;;;;17.23;54.63281;938.8608;;;;
2023/04/18 08:39:37;;;;;;;3.7;3.4;;;;;;;17.93;50.85254;938.8497;;;;
2023/04/18 08:42:02;;;;;;;3.4;3.1;;;;;;;18.79;47.92676;938.8133;;;;
2023/04/18 08:44:29;;;;;;;3.5;3.2;;;;;;;18.07;49.24316;938.8353;;;;
2023/04/18 08:46:54;;;;;;;3.4;3.1;;;;;;;17.82;50.08496;938.8466;;;;
2023/04/18 08:49:21;;;;;;;4.9;3;;;;;;;19.02;46.20508;938.9039;;;;
2023/04/18 08:51:46;;;;;;;3.2;2.9;;;;;;;19.1;47.58691;938.8281;;;;
2023/04/18 08:54:11;;;;;;;3.3;2.9;;;;;;;20.3;44.51855;938.8957;;;;
2023/04/18 08:56:39;;;;;;;3.2;2.9;;;;;;;19.7;43.05859;938.8103;;;;
2023/04/18 08:59:01;;;;;;;3.2;2.9;;;;;;;19.03;46.18262;938.8951;;;;
2023/04/18 09:01:26;;;;;;;3.8;3.4;;;;;;;19.43;47.16895;938.8622;;;;
2023/04/18 09:03:51;;;;;;;3.8;3.4;;;;;;;19.71;45.3457;938.7969;;;;
2023/04/18 09:06:17;;;;;;;3.4;3.1;;;;;;;19.13;45.99609;938.8025;;;;
2023/04/18 09:08:43;;;;;;;3.1;2.7;;;;;;;19.41;44.62695;938.8333;;;;
2023/04/18 09:11:07;;;;;;;2.9;2.7;;;;;;;19.38;44.9502;938.8445;;;;
2023/04/18 09:13:33;;;;;;;4.1;3.1;;;;;;;19.76;43.68262;938.858;;;;
2023/04/18 09:15:58;;;;;;;3.8;3.4;;;;;;;18.95;48.07324;938.8964;;;;
2023/04/18 09:18:24;;;;;;;3.2;2.9;;;;;;;18.55;47.84277;938.8435;;;;
2023/04/18 09:20:49;;;;;;;3.3;2.9;;;;;;;19.51;45.7666;938.8791;;;;
2023/04/18 09:23:15;;;;;;;2.8;2.6;;;;;;;20.82;43.0166;938.7803;;;;
2023/04/18 09:25:41;;;;;;;2.8;2.6;;;;;;;20.02;43.53223;938.8017;;;;
2023/04/18 09:28:09;;;;;;;2.7;2.5;;;;;;;19.42;44.1377;938.8558;;;;
2023/04/18 09:30:33;;;;;;;2.7;2.5;;;;;;;18.16;49.74121;938.8264;;;;
2023/04/18 09:33:01;;;;;;;3;2.8;;;;;;;19.12;47.41504;938.7914;;;;
2023/04/18 09:35:24;;;;;;;3.4;3.1;;;;;;;19.59;48.06055;938.7698;;;;
2023/04/18 09:37:53;;;;;;;2.4;2.2;;;;;;;20.12;43.91602;938.7508;;;;
2023/04/18 09:40:18;;;;;;;3;2.7;;;;;;;20.03;45.78613;938.7491;;;;
2023/04/18 09:42:45;;;;;;;2.9;2.7;;;;;;;19.78;46.78613;938.7598;;;;
2023/04/18 09:45:14;;;;;;;3.5;3.1;;;;;;;19.6;46.97754;938.7059;;;;
2023/04/18 09:47:38;;;;;;;3.3;3;;;;;;;20.44;44.90625;938.688;;;;
2023/04/18 09:50:03;;;;;;;3.1;2.8;;;;;;;20.73;44.23535;938.6863;;;;
2023/04/18 09:52:28;;;;;;;3.4;3.1;;;;;;;19.27;47.55957;938.6785;;;;
2023/04/18 09:54:59;;;;;;;2.8;2.6;;;;;;;19.48;48.98047;938.5598;;;;
2023/04/18 09:57:22;;;;;;;3.3;2.9;;;;;;;20.45;45.95703;938.611;;;;
2023/04/18 09:59:48;;;;;;;3;2.7;;;;;;;20.63;44.85547;938.6505;;;;
2023/04/18 10:02:17;;;;;;;3.2;2.9;;;;;;;21.67;42.74805;938.6218;;;;
2023/04/18 10:04:45;;;;;;;3.6;3;;;;;;;21.46;42.10645;938.5911;;;;
2023/04/18 10:07:10;;;;;;;3.4;3.1;;;;;;;20.52;43.71094;938.6064;;;;
2023/04/18 10:09:38;;;;;;;5.4;3.1;;;;;;;20.19;45.70898;938.562;;;;
2023/04/18 10:12:03;;;;;;;3.5;3.2;;;;;;;20.4;46.30371;938.5897;;;;
2023/04/18 10:14:27;;;;;;;3.4;3.1;;;;;;;19.63;47.07324;938.598;;;;
2023/04/18 10:16:52;;;;;;;3.5;2.8;;;;;;;20.07;45.34668;938.5895;;;;
2023/04/18 10:19:18;;;;;;;3.9;3.2;;;;;;;19.77;46.08594;938.5402;;;;
2023/04/18 10:21:44;;;;;;;3.8;3.1;;;;;;;18.57;49.28711;938.6164;;;;
2023/04/18 10:24:09;;;;;;;3.8;3.4;;;;;;;17.47;52.33008;938.5458;;;;
2023/04/18 10:26:34;;;;;;;3.6;3.1;;;;;;;17.18;53.37402;938.5039;;;;
2023/04/18 10:28:59;;;;;;;3.7;3;;;;;;;18.62;51.43262;938.5214;;;;
2023/04/18 10:31:26;;;;;;;3.8;3.4;;;;;;;20.42;48.20898;938.4749;;;;
2023/04/18 10:33:51;;;;;;;4.2;3.8;;;;;;;19.85;46.33887;938.502;;;;
2023/04/18 10:36:18;;;;;;;4.4;3.5;;;;;;;19.18;48.99316;938.5019;;;;
2023/04/18 10:38:47;;;;;;;4.3;3.9;;;;;;;17.98;52.63574;938.4853;;;;
2023/04/18 10:41:09;;;;;;;5.3;4.1;;;;;;;18.07;52.30957;938.5033;;;;
2023/04/18 10:43:34;;;;;;;4.2;3.8;;;;;;;17.72;52.73242;938.4358;;;;
2023/04/18 10:45:59;;;;;;;4.3;3.9;;;;;;;18.43;51.99121;938.4799;;;;
2023/04/18 10:48:28;;;;;;;5;4.1;;;;;;;19.15;50.35254;938.4338;;;;
2023/04/18 10:50:50;;;;;;;4.1;3.7;;;;;;;20.33;46.2373;938.3717;;;;
2023/04/18 10:53:15;;;;;;;4.9;4.2;;;;;;;20.13;48.41113;938.2629;;;;
2023/04/18 10:55:40;;;;;;;4.8;4.1;;;;;;;20.7;46.61426;938.392;;;;
2023/04/18 10:58:05;;;;;;;5.2;4.1;;;;;;;20.55;46.62207;938.3248;;;;
2023/04/18 11:00:31;;;;;;;4.7;4.2;;;;;;;19.29;48.00488;938.3589;;;;
2023/04/18 11:02:58;;;;;;;4.8;4.1;;;;;;;18.06;51.71484;938.2924;;;;
2023/04/18 11:05:24;;;;;;;4.9;4.1;;;;;;;16.92;54.53711;938.3854;;;;
2023/04/18 11:07:49;;;;;;;6.1;4.4;;;;;;;16.27;56.21387;938.3617;;;;
2023/04/18 11:10:17;;;;;;;5.1;4.4;;;;;;;16.15;58.85742;938.3243;;;;
2023/04/18 11:12:42;;;;;;;5.5;4.4;;;;;;;16.26;57.41504;938.3474;;;;
2023/04/18 11:15:11;;;;;;;6.7;5.4;;;;;;;16.87;56.25586;938.3354;;;;
2023/04/18 11:17:40;;;;;;;5.5;4.5;;;;;;;16.41;56.68359;938.2514;;;;
2023/04/18 11:20:07;;;;;;;5.5;4.9;;;;;;;16.29;57.40723;938.2441;;;;
2023/04/18 11:22:30;;;;;;;6.7;5.2;;;;;;;15.52;59.82617;938.3137;;;;
2023/04/18 11:24:55;;;;;;;7.8;6;;;;;;;14.92;62.07324;938.3491;;;;
2023/04/18 11:27:24;;;;;;;8.2;6;;;;;;;14.68;63.61719;938.3666;;;;
2023/04/18 11:29:49;;;;;;;8.8;6.4;;;;;;;14.68;62.15332;938.3689;;;;
2023/04/18 11:32:15;;;;;;;9.1;6.6;;;;;;;14.36;64.33203;938.3826;;;;
2023/04/18 11:34:40;;;;;;;8.6;6.1;;;;;;;14.22;65.54395;938.4177;;;;
2023/04/18 11:37:07;;;;;;;7.3;6;;;;;;;14.28;65.56348;938.3942;;;;
2023/04/18 11:39:32;;;;;;;7.5;6;;;;;;;14.2;64.49219;938.4279;;;;
2023/04/18 11:41:57;;;;;;;7.1;5.9;;;;;;;14.45;63.41211;938.4661;;;;
2023/04/18 11:44:22;;;;;;;7.7;6.1;;;;;;;14.5;63.30469;938.4947;;;;
2023/04/18 11:46:50;;;;;;;9;6.4;;;;;;;14.59;62.23438;938.4428;;;;
2023/04/18 11:49:13;;;;;;;7.9;6.1;;;;;;;14.52;64.97754;938.4441;;;;
2023/04/18 11:51:45;;;;;;;6.9;6;;;;;;;14.57;64.0293;938.4061;;;;
2023/04/18 11:54:08;;;;;;;7.1;5.6;;;;;;;14.65;64.76563;938.4773;;;;
2023/04/18 11:56:33;;;;;;;7.2;5.9;;;;;;;14.6;64.22949;938.4444;;;;
2023/04/18 11:58:58;;;;;;;8;6.2;;;;;;;14.3;64.4834;938.4614;;;;
2023/04/18 12:01:24;;;;;;;7.1;5.8;;;;;;;14;65.31445;938.4587;;;;
2023/04/18 12:03:49;;;;;;;6.3;5.6;;;;;;;13.88;65.49121;938.5208;;;;
2023/04/18 12:06:14;;;;;;;8;5.6;;;;;;;13.95;66.68652;938.4646;;;;
2023/04/18 12:08:39;;;;;;;8.6;6.5;;;;;;;13.78;66.30371;938.4977;;;;
2023/04/18 12:11:04;;;;;;;7.1;5.7;;;;;;;13.79;66.23633;938.5215;;;;
2023/04/18 12:13:29;;;;;;;6.7;5.5;;;;;;;13.79;66.21484;938.4919;;;;
2023/04/18 12:15:55;;;;;;;6.7;5.6;;;;;;;13.66;66.37793;938.4755;;;;
2023/04/18 12:18:20;;;;;;;8.3;6.4;;;;;;;13.27;68.59375;938.4794;;;;
2023/04/18 12:20:48;;;;;;;7.7;6;;;;;;;12.9;69.91309;938.4625;;;;
2023/04/18 12:23:10;;;;;;;9;6.7;;;;;;;12.88;69.95605;938.4841;;;;
2023/04/18 12:25:37;;;;;;;11;7.2;;;;;;;12.79;70.33203;938.5005;;;;
2023/04/18 12:28:03;;;;;;;9.2;6.7;;;;;;;12.78;70.68457;938.4598;;;;
2023/04/18 12:30:29;;;;;;;9.7;6.5;;;;;;;12.8;71.2627;938.5061;;;;
2023/04/18 12:32:54;;;;;;;8.3;6.8;;;;;;;12.86;70.30957;938.4729;;;;
2023/04/18 12:35:22;;;;;;;8.4;6.4;;;;;;;12.92;69.82617;938.465;;;;
2023/04/18 12:37:47;;;;;;;8.6;6.7;;;;;;;13;70.52637;938.5002;;;;
2023/04/18 12:40:17;;;;;;;7.4;6;;;;;;;12.95;70.20898;938.5114;;;;
2023/04/18 12:42:41;;;;;;;8.8;6.6;;;;;;;12.9;70.41797;938.4745;;;;
2023/04/18 12:45:10;;;;;;;8.4;6.3;;;;;;;12.97;71.72754;938.4426;;;;
2023/04/18 12:47:36;;;;;;;7.8;6;;;;;;;13.07;69.81641;938.4286;;;;
2023/04/18 12:50:00;;;;;;;8.6;6.8;;;;;;;13.18;71.81934;938.4208;;;;
2023/04/18 12:52:27;;;;;;;6.6;5.7;;;;;;;13.4;69.02734;938.4441;;;;
2023/04/18 12:54:55;;;;;;;8.8;6.2;;;;;;;13.51;68.58691;938.4467;;;;
2023/04/18 12:57:17;;;;;;;8.8;6.7;;;;;;;13.66;68.29883;938.4803;;;;
2023/04/18 12:59:42;;;;;;;7.3;6;;;;;;;13.64;68.8252;938.4731;;;;
2023/04/18 13:02:08;;;;;;;7.5;6.1;;;;;;;13.54;69.24609;938.445;;;;
2023/04/18 13:04:37;;;;;;;8.4;6.2;;;;;;;13.47;69.16602;938.4411;;;;
2023/04/18 13:07:02;;;;;;;6;5.4;;;;;;;13.51;68.41406;938.4163;;;;
2023/04/18 13:09:28;;;;;;;7.1;5.6;;;;;;;13.46;67.8418;938.4331;;;;
2023/04/18 13:11:53;;;;;;;7.7;5.9;;;;;;;13.45;68.67969;938.4523;;;;
2023/04/18 13:14:20;;;;;;;7.7;5.7;;;;;;;13.35;69.65234;938.4578;;;;
2023/04/18 13:16:47;;;;;;;6.2;5;;;;;;;13.4;68.25879;938.4697;;;;
2023/04/18 13:19:14;;;;;;;6.5;5.3;;;;;;;13.2;68.52637;938.4536;;;;
2023/04/18 13:21:40;;;;;;;6.3;4.9;;;;;;;13.33;67.91406;938.4426;;;;
2023/04/18 13:24:06;;;;;;;6.6;5.2;;;;;;;13.33;69.24707;938.4714;;;;
2023/04/18 13:26:34;;;;;;;5.6;4.6;;;;;;;13.46;66.72754;938.4827;;;;
2023/04/18 13:28:56;;;;;;;6.1;4.5;;;;;;;13.42;68.34277;938.426;;;;
2023/04/18 13:31:24;;;;;;;5.8;4.8;;;;;;;13.26;69.4082;938.4819;;;;
2023/04/18 13:33:50;;;;;;;5.3;4.1;;;;;;;13.23;68.38184;938.4483;;;;
2023/04/18 13:36:15;;;;;;;4.9;4.1;;;;;;;13.16;68.15234;938.3917;;;;
2023/04/18 13:38:40;;;;;;;6.2;4.3;;;;;;;13.13;68.60547;938.4797;;;;
2023/04/18 13:41:07;;;;;;;4.9;4.1;;;;;;;13.07;68.28809;938.5212;;;;
2023/04/18 13:43:32;;;;;;;5.2;4.2;;;;;;;13.07;67.82813;938.4749;;;;
2023/04/18 13:45:58;;;;;;;5.9;4.2;;;;;;;12.94;68.47363;938.5712;;;;
2023/04/18 13:48:23;;;;;;;5.8;3.9;;;;;;;13;68.61035;938.5233;;;;
2023/04/18 13:50:50;;;;;;;6.6;4.4;;;;;;;12.96;69.1543;938.5784;;;;
2023/04/18 13:53:17;;;;;;;4.9;4;;;;;;;12.82;70.02832;938.5823;;;;
2023/04/18 13:55:41;;;;;;;6;4.5;;;;;;;12.91;70.06445;938.644;;;;
2023/04/18 13:58:06;;;;;;;5.4;4;;;;;;;12.9;69.56934;938.5705;;;;
2023/04/18 14:00:31;;;;;;;4.3;3.9;;;;;;;12.85;69.6875;938.5992;;;;
2023/04/18 14:03:00;;;;;;;3.9;3.4;;;;;;;12.96;69.78418;938.5825;;;;
2023/04/18 14:05:25;;;;;;;4.4;3.7;;;;;;;12.87;70.50586;938.604;;;;
2023/04/18 14:07:51;;;;;;;5;3.6;;;;;;;12.94;70.18457;938.6136;;;;
2023/04/18 14:10:16;;;;;;;5.1;3.9;;;;;;;13.11;69.24609;938.6628;;;;
2023/04/18 14:12:44;;;;;;;4.4;3.5;;;;;;;13.03;68.78516;938.6588;;;;
2023/04/18 14:15:09;;;;;;;3.7;3.3;;;;;;;13.21;68.02148;938.6655;;;;
2023/04/18 14:17:35;;;;;;;4;3.4;;;;;;;13.43;67.58496;938.6692;;;;
2023/04/18 14:20:00;;;;;;;4.3;3.6;;;;;;;13.63;66.9834;938.6548;;;;